Time;durP1;ratioP1;P1;durP2;ratioP2;P2;SDS_P1;SDS_P2;PMS_P1;PMS_P2;Temp;Humidity;BMP_temperature;BMP_pressure;BME280_temperature;BME280_humidity;BME280_pressure;Samples;Min_cycle;Max_cycle;Signal;HPM_P1;HPM_P2
2021/09/07 00:01:26;;;;;;;6.13;4.20;;;12.70;82.80;;;;;;4947543;28;20035;-68
2021/09/07 00:03:51;;;;;;;6.47;4.40;;;12.70;82.40;;;;;;4944406;28;20038;-68
2021/09/07 00:06:17;;;;;;;7.60;4.63;;;12.70;82.50;;;;;;4944845;28;20054;-68
2021/09/07 00:08:44;;;;;;;6.53;4.40;;;12.60;82.40;;;;;;4948389;28;20032;-67
2021/09/07 00:11:10;;;;;;;7.57;4.80;;;12.60;82.60;;;;;;4951168;28;20038;-67
2021/09/07 00:13:36;;;;;;;8.63;5.60;;;12.60;82.80;;;;;;4948771;28;20023;-68
2021/09/07 00:16:02;;;;;;;6.95;4.38;;;12.60;83.00;;;;;;4950135;28;20150;-67
2021/09/07 00:18:28;;;;;;;8.55;4.45;;;12.50;82.80;;;;;;4947889;28;20047;-67
2021/09/07 00:20:55;;;;;;;9.02;4.72;;;12.50;82.90;;;;;;4944935;28;20451;-67
2021/09/07 00:23:20;;;;;;;9.02;4.07;;;12.50;83.00;;;;;;4946688;28;20514;-68
2021/09/07 00:25:46;;;;;;;6.22;4.38;;;12.40;82.90;;;;;;4950657;28;20054;-67
2021/09/07 00:28:12;;;;;;;6.38;4.35;;;12.40;83.10;;;;;;4949965;28;20030;-67
2021/09/07 00:30:37;;;;;;;8.88;4.57;;;12.40;83.00;;;;;;4950345;28;20457;-67
2021/09/07 00:33:04;;;;;;;7.60;4.43;;;12.40;82.60;;;;;;4953130;28;20023;-67
2021/09/07 00:35:31;;;;;;;6.85;4.53;;;12.30;82.20;;;;;;4951689;28;20039;-67
2021/09/07 00:37:57;;;;;;;7.88;4.70;;;12.30;82.70;;;;;;4949936;28;20035;-67
2021/09/07 00:40:23;;;;;;;8.65;4.93;;;12.30;83.30;;;;;;4950100;28;20097;-68
2021/09/07 00:42:48;;;;;;;6.38;4.55;;;12.30;83.10;;;;;;4946903;28;20035;-68
2021/09/07 00:45:14;;;;;;;6.32;4.57;;;12.20;83.10;;;;;;4945421;28;20528;-67
2021/09/07 00:47:41;;;;;;;9.15;5.63;;;12.30;83.50;;;;;;4948285;28;20067;-67
2021/09/07 00:50:08;;;;;;;8.88;5.07;;;12.20;84.40;;;;;;4948937;28;20019;-68
2021/09/07 00:52:36;;;;;;;7.20;4.60;;;12.20;84.30;;;;;;4948430;28;20031;-68
2021/09/07 00:55:02;;;;;;;6.20;4.47;;;12.20;84.00;;;;;;4946569;28;20047;-68
2021/09/07 00:57:29;;;;;;;6.28;4.25;;;12.20;84.00;;;;;;4952375;28;20043;-68
2021/09/07 00:59:54;;;;;;;5.88;3.70;;;12.20;83.60;;;;;;4951280;28;20027;-69
2021/09/07 01:02:21;;;;;;;5.53;3.17;;;12.10;82.40;;;;;;4947956;28;20040;-67
2021/09/07 01:04:47;;;;;;;3.97;2.97;;;12.10;82.60;;;;;;4947678;28;20511;-67
2021/09/07 01:07:13;;;;;;;5.72;3.10;;;12.00;82.00;;;;;;4952837;28;20132;-67
2021/09/07 01:09:39;;;;;;;5.68;4.13;;;12.00;81.30;;;;;;4949433;28;20037;-68
2021/09/07 01:12:07;;;;;;;7.68;4.28;;;11.90;83.90;;;;;;4951482;28;20042;-66
2021/09/07 01:14:36;;;;;;;6.03;3.95;;;11.90;84.10;;;;;;4947172;28;20114;-67
2021/09/07 01:17:02;;;;;;;7.93;4.20;;;11.90;83.80;;;;;;4943257;28;20031;-67
2021/09/07 01:19:29;;;;;;;5.63;3.92;;;11.90;83.70;;;;;;4951957;28;20027;-67
2021/09/07 01:21:55;;;;;;;7.90;4.93;;;11.90;83.80;;;;;;4950317;28;20023;-67
2021/09/07 01:24:23;;;;;;;9.35;4.63;;;11.90;83.90;;;;;;4948473;28;20031;-67
2021/09/07 01:26:50;;;;;;;7.65;4.75;;;11.90;84.00;;;;;;4950501;28;20121;-67
2021/09/07 01:29:16;;;;;;;7.93;4.28;;;11.90;83.80;;;;;;4946416;28;20031;-67
2021/09/07 01:31:42;;;;;;;7.18;4.63;;;11.90;84.40;;;;;;4944606;28;20036;-67
2021/09/07 01:34:08;;;;;;;7.50;4.75;;;11.80;85.40;;;;;;4946737;28;20023;-67
2021/09/07 01:36:35;;;;;;;7.05;4.40;;;11.80;84.90;;;;;;4944919;28;20101;-67
2021/09/07 01:39:00;;;;;;;5.80;3.53;;;11.80;84.60;;;;;;4952234;28;20035;-67
2021/09/07 01:41:26;;;;;;;6.72;4.32;;;11.80;84.50;;;;;;4946179;28;20100;-67
2021/09/07 01:43:52;;;;;;;4.88;3.40;;;11.80;84.50;;;;;;4950978;28;20027;-67
2021/09/07 01:46:18;;;;;;;4.65;3.78;;;11.70;84.00;;;;;;4946971;28;20106;-68
2021/09/07 01:48:44;;;;;;;4.05;3.13;;;11.70;83.60;;;;;;4945100;28;20511;-67
2021/09/07 01:51:10;;;;;;;4.68;3.80;;;11.70;83.60;;;;;;4942816;28;20035;-67
2021/09/07 01:53:35;;;;;;;4.75;3.33;;;11.60;84.20;;;;;;4965849;28;20067;-67
2021/09/07 01:56:01;;;;;;;5.20;3.75;;;11.60;83.70;;;;;;4960834;28;20134;-67
2021/09/07 01:58:27;;;;;;;5.80;4.00;;;11.50;84.70;;;;;;4949871;28;20526;-67
2021/09/07 02:00:53;;;;;;;5.45;3.65;;;11.50;84.80;;;;;;4951150;28;20055;-67
2021/09/07 02:03:18;;;;;;;5.38;4.00;;;11.50;84.60;;;;;;4942180;28;20123;-67
2021/09/07 02:05:44;;;;;;;4.18;3.40;;;11.50;84.90;;;;;;4962569;28;20027;-67
2021/09/07 02:08:10;;;;;;;5.18;3.20;;;11.50;84.70;;;;;;4950153;28;20070;-67
2021/09/07 02:10:35;;;;;;;4.47;2.85;;;11.40;85.80;;;;;;4945300;28;20035;-67
2021/09/07 02:13:02;;;;;;;5.57;3.67;;;11.40;85.10;;;;;;4946793;28;20496;-67
2021/09/07 02:15:29;;;;;;;8.10;4.07;;;11.30;85.30;;;;;;4946779;28;20492;-67
2021/09/07 02:17:55;;;;;;;4.65;3.80;;;11.40;85.30;;;;;;4947111;28;20037;-67
2021/09/07 02:20:21;;;;;;;6.47;4.45;;;11.30;85.80;;;;;;4948482;28;20043;-68
2021/09/07 02:22:46;;;;;;;5.97;4.38;;;11.30;86.00;;;;;;4945482;28;20043;-67
2021/09/07 02:25:12;;;;;;;6.35;4.28;;;11.30;85.80;;;;;;4962028;28;20472;-67
2021/09/07 02:27:38;;;;;;;6.38;4.10;;;11.30;85.70;;;;;;4947890;28;20032;-67
2021/09/07 02:30:08;;;;;;;6.15;4.63;;;11.30;85.60;;;;;;4964122;28;20027;-67
2021/09/07 02:32:34;;;;;;;4.20;3.80;;;11.30;85.70;;;;;;4943735;28;20035;-67
2021/09/07 02:34:59;;;;;;;6.88;4.32;;;11.30;85.70;;;;;;4954854;28;20452;-67
2021/09/07 02:37:25;;;;;;;6.00;4.30;;;11.20;85.70;;;;;;4947955;28;20031;-67
2021/09/07 02:39:51;;;;;;;7.82;4.30;;;11.20;85.80;;;;;;4951275;28;20032;-67
2021/09/07 02:42:17;;;;;;;6.70;4.07;;;11.20;86.10;;;;;;4946509;28;20353;-67
2021/09/07 02:44:42;;;;;;;5.85;4.30;;;11.10;86.40;;;;;;4945577;28;20035;-67
2021/09/07 02:47:08;;;;;;;6.50;3.58;;;11.20;86.10;;;;;;4948308;28;20020;-67
2021/09/07 02:49:34;;;;;;;7.40;4.35;;;11.10;85.60;;;;;;4948200;28;20537;-67
2021/09/07 02:51:59;;;;;;;7.13;4.20;;;11.10;85.70;;;;;;4942426;28;20043;-67
2021/09/07 02:54:25;;;;;;;6.22;4.40;;;11.10;85.60;;;;;;4964290;28;20027;-67
2021/09/07 02:56:51;;;;;;;4.82;3.88;;;11.10;86.60;;;;;;4947390;28;20041;-67
2021/09/07 02:59:17;;;;;;;8.25;4.50;;;11.10;85.80;;;;;;4947297;28;20054;-67
2021/09/07 03:01:42;;;;;;;7.95;4.80;;;11.00;86.20;;;;;;4943148;28;20126;-67
2021/09/07 03:04:08;;;;;;;8.18;4.65;;;11.00;85.90;;;;;;4944162;28;20744;-66
2021/09/07 03:06:34;;;;;;;7.20;4.68;;;11.00;86.30;;;;;;4947097;28;20039;-67
2021/09/07 03:08:59;;;;;;;6.00;4.32;;;11.00;86.30;;;;;;4947198;28;20030;-67
2021/09/07 03:11:25;;;;;;;6.40;4.68;;;11.00;86.30;;;;;;4945941;28;20504;-67
2021/09/07 03:13:51;;;;;;;6.93;4.40;;;10.90;87.60;;;;;;4946365;28;21432;-67
2021/09/07 03:16:17;;;;;;;7.38;4.10;;;10.90;87.00;;;;;;4949385;28;20090;-67
2021/09/07 03:18:42;;;;;;;8.88;5.10;;;10.90;86.20;;;;;;4961773;28;20033;-67
2021/09/07 03:21:08;;;;;;;7.68;4.53;;;10.90;86.60;;;;;;4946388;28;20480;-67
2021/09/07 03:23:34;;;;;;;8.70;4.57;;;10.90;86.10;;;;;;4945877;28;20047;-67
2021/09/07 03:26:00;;;;;;;9.30;5.20;;;10.90;86.10;;;;;;4952280;28;20638;-67
2021/09/07 03:28:25;;;;;;;7.28;4.40;;;10.90;85.80;;;;;;4949672;28;20107;-67
2021/09/07 03:30:51;;;;;;;5.05;3.95;;;10.80;85.10;;;;;;4940019;28;20428;-67
2021/09/07 03:33:17;;;;;;;9.38;5.00;;;10.90;85.30;;;;;;4944601;28;20511;-67
2021/09/07 03:35:43;;;;;;;5.00;3.78;;;10.80;86.10;;;;;;4950092;28;20094;-67
2021/09/07 03:38:09;;;;;;;3.25;2.58;;;10.80;85.60;;;;;;4948447;28;20115;-67
2021/09/07 03:40:35;;;;;;;4.25;3.00;;;10.60;85.80;;;;;;4942066;28;20114;-67
2021/09/07 03:43:01;;;;;;;3.47;2.88;;;10.60;85.70;;;;;;4940046;28;20062;-67
2021/09/07 03:45:26;;;;;;;6.57;3.15;;;10.50;86.10;;;;;;4943386;28;20038;-67
2021/09/07 03:47:52;;;;;;;3.75;3.00;;;10.50;86.40;;;;;;4939148;28;20032;-67
2021/09/07 03:50:18;;;;;;;4.43;3.47;;;10.50;87.00;;;;;;4946933;28;20159;-67
2021/09/07 03:52:44;;;;;;;5.55;3.53;;;10.50;87.20;;;;;;4941240;28;20086;-67
2021/09/07 03:55:10;;;;;;;7.57;4.75;;;10.50;87.50;;;;;;4943446;28;20038;-67
2021/09/07 03:57:36;;;;;;;5.82;4.38;;;10.50;89.20;;;;;;4947182;28;20417;-67
2021/09/07 04:00:02;;;;;;;6.38;4.43;;;10.50;88.50;;;;;;4945759;28;20062;-66
2021/09/07 04:02:27;;;;;;;5.20;3.50;;;10.50;87.50;;;;;;4945581;28;20079;-66
2021/09/07 04:04:54;;;;;;;6.03;4.40;;;10.50;87.40;;;;;;4940695;28;20023;-67
2021/09/07 04:07:20;;;;;;;4.75;3.80;;;10.40;88.70;;;;;;4944345;28;20055;-66
2021/09/07 04:09:45;;;;;;;7.53;4.07;;;10.50;87.80;;;;;;4947306;28;20023;-67
2021/09/07 04:12:12;;;;;;;6.32;4.10;;;10.50;87.30;;;;;;4960349;28;20039;-67
2021/09/07 04:14:37;;;;;;;6.00;4.47;;;10.50;87.80;;;;;;4947936;28;20039;-67
2021/09/07 04:17:05;;;;;;;5.25;4.15;;;10.40;87.90;;;;;;4948111;28;20121;-66
2021/09/07 04:19:32;;;;;;;6.25;4.30;;;10.40;88.00;;;;;;4951265;28;20038;-66
2021/09/07 04:21:57;;;;;;;8.15;4.55;;;10.50;87.60;;;;;;4943669;28;21598;-67
2021/09/07 04:24:23;;;;;;;5.65;4.13;;;10.40;88.00;;;;;;4947052;28;20031;-67
2021/09/07 04:26:49;;;;;;;7.50;4.60;;;10.50;87.90;;;;;;4941539;28;20054;-67
2021/09/07 04:29:14;;;;;;;7.25;4.25;;;10.40;87.30;;;;;;4942589;28;20023;-67
2021/09/07 04:31:42;;;;;;;6.00;4.15;;;10.50;87.10;;;;;;4947643;28;20039;-67
2021/09/07 04:34:08;;;;;;;6.13;3.38;;;10.50;86.80;;;;;;4951327;28;20027;-66
2021/09/07 04:36:33;;;;;;;3.60;2.88;;;10.30;84.70;;;;;;4964311;28;20556;-67
2021/09/07 04:38:59;;;;;;;3.38;2.33;;;10.20;84.50;;;;;;4948160;28;20062;-67
2021/09/07 04:41:25;;;;;;;2.42;2.20;;;10.00;84.30;;;;;;4943235;28;20046;-67
2021/09/07 04:43:50;;;;;;;2.58;2.20;;;10.00;84.20;;;;;;4946936;28;20015;-67
2021/09/07 04:46:17;;;;;;;2.58;2.38;;;9.90;84.40;;;;;;4942535;28;20432;-68
2021/09/07 04:48:43;;;;;;;3.42;2.50;;;9.90;85.10;;;;;;4948739;28;20106;-67
2021/09/07 04:51:09;;;;;;;4.88;3.00;;;9.90;85.60;;;;;;4947895;28;20024;-67
2021/09/07 04:53:34;;;;;;;5.03;3.30;;;9.90;85.90;;;;;;4944226;28;20050;-67
2021/09/07 04:56:01;;;;;;;6.05;4.25;;;9.90;86.30;;;;;;4945376;28;20502;-67
2021/09/07 04:58:27;;;;;;;6.90;4.20;;;9.90;88.40;;;;;;4949517;28;20033;-67
2021/09/07 05:00:53;;;;;;;5.13;4.18;;;9.90;90.00;;;;;;4947547;28;20039;-67
2021/09/07 05:03:18;;;;;;;6.47;4.60;;;10.00;88.60;;;;;;4950421;28;20059;-67
2021/09/07 05:05:44;;;;;;;12.23;5.05;;;10.00;89.30;;;;;;4947396;28;20073;-68
2021/09/07 05:08:09;;;;;;;7.03;4.50;;;10.00;89.60;;;;;;4953884;28;20504;-67
2021/09/07 05:10:35;;;;;;;6.03;4.43;;;10.10;89.40;;;;;;4951668;28;20043;-68
2021/09/07 05:13:01;;;;;;;5.65;4.28;;;10.10;88.90;;;;;;4957152;28;20513;-68
2021/09/07 05:15:26;;;;;;;6.13;4.07;;;10.10;89.10;;;;;;4951183;28;20033;-67
2021/09/07 05:17:52;;;;;;;5.22;3.58;;;10.20;88.50;;;;;;4946998;28;20066;-67
2021/09/07 05:20:18;;;;;;;5.57;3.15;;;10.10;87.10;;;;;;4962753;28;20023;-67
2021/09/07 05:22:45;;;;;;;6.30;3.83;;;10.00;86.70;;;;;;4947538;28;20043;-67
2021/09/07 05:25:11;;;;;;;5.50;3.78;;;10.00;87.20;;;;;;4947783;28;20035;-68
2021/09/07 05:27:37;;;;;;;5.22;3.67;;;10.00;87.20;;;;;;4968317;28;20069;-67
2021/09/07 05:30:07;;;;;;;4.03;3.63;;;10.10;87.50;;;;;;4944357;28;20456;-67
2021/09/07 05:32:33;;;;;;;4.00;3.60;;;10.10;88.10;;;;;;4944822;28;20066;-67
2021/09/07 05:34:59;;;;;;;5.38;3.50;;;10.10;88.80;;;;;;4949558;28;20039;-67
2021/09/07 05:37:24;;;;;;;5.82;3.75;;;10.10;89.50;;;;;;4952169;29;20031;-67
2021/09/07 05:39:50;;;;;;;5.43;3.85;;;10.10;89.50;;;;;;4949056;28;20101;-67
2021/09/07 05:42:16;;;;;;;8.98;4.82;;;10.00;90.10;;;;;;4947316;28;20043;-67
2021/09/07 05:44:41;;;;;;;5.80;4.20;;;10.10;89.90;;;;;;4950016;28;20051;-67
2021/09/07 05:47:07;;;;;;;6.03;4.50;;;10.20;89.60;;;;;;4939066;28;20408;-68
2021/09/07 05:49:33;;;;;;;7.65;4.47;;;10.20;89.60;;;;;;4940898;28;20031;-67
2021/09/07 05:51:59;;;;;;;6.20;4.43;;;10.20;90.00;;;;;;4946309;28;20439;-67
2021/09/07 05:54:25;;;;;;;5.40;4.15;;;10.30;89.80;;;;;;4947732;28;20396;-67
2021/09/07 05:56:50;;;;;;;9.13;4.32;;;10.30;89.80;;;;;;4946111;28;20038;-67
2021/09/07 05:59:17;;;;;;;5.32;4.43;;;10.40;89.70;;;;;;4956413;28;20035;-67
2021/09/07 06:01:43;;;;;;;7.28;4.88;;;10.40;89.50;;;;;;4943071;28;20074;-67
2021/09/07 06:04:09;;;;;;;10.57;4.68;;;10.50;89.40;;;;;;4961482;28;20054;-67
2021/09/07 06:06:34;;;;;;;7.78;5.00;;;10.50;90.10;;;;;;4944132;29;20110;-67
2021/09/07 06:09:00;;;;;;;6.65;4.60;;;10.60;90.20;;;;;;4946333;28;20046;-67
2021/09/07 06:11:26;;;;;;;10.68;5.05;;;10.60;90.10;;;;;;4946630;28;20529;-67
2021/09/07 06:13:52;;;;;;;6.55;4.57;;;10.70;90.00;;;;;;4944629;28;20027;-67
2021/09/07 06:16:18;;;;;;;8.52;5.55;;;10.70;90.00;;;;;;4944055;28;20027;-67
2021/09/07 06:18:44;;;;;;;10.00;6.05;;;10.80;90.20;;;;;;4945022;28;20093;-67
2021/09/07 06:21:09;;;;;;;11.15;5.25;;;10.80;90.50;;;;;;4963221;28;20035;-67
2021/09/07 06:23:35;;;;;;;10.40;5.65;;;10.90;90.80;;;;;;4942807;28;20736;-67
2021/09/07 06:26:01;;;;;;;8.68;5.90;;;10.90;91.00;;;;;;4950516;28;20027;-68
2021/09/07 06:28:27;;;;;;;9.35;5.38;;;11.00;91.00;;;;;;4948535;28;20106;-67
2021/09/07 06:30:53;;;;;;;11.60;5.95;;;11.00;91.40;;;;;;4947800;28;20047;-67
2021/09/07 06:33:19;;;;;;;9.98;6.40;;;11.10;91.10;;;;;;4949700;28;20090;-67
2021/09/07 06:35:45;;;;;;;10.35;6.18;;;11.10;91.60;;;;;;4944790;28;20483;-66
2021/09/07 06:38:11;;;;;;;10.95;6.20;;;11.20;91.50;;;;;;4951883;28;20070;-67
2021/09/07 06:40:39;;;;;;;13.23;7.32;;;11.30;91.30;;;;;;4964386;28;20027;-68
2021/09/07 06:43:04;;;;;;;11.77;6.93;;;11.30;92.00;;;;;;4950213;28;20023;-67
2021/09/07 06:45:30;;;;;;;12.68;6.72;;;11.30;91.80;;;;;;4961427;28;20023;-66
2021/09/07 06:47:56;;;;;;;9.98;6.10;;;11.40;91.40;;;;;;4943202;28;20034;-67
2021/09/07 06:50:21;;;;;;;15.25;7.53;;;11.40;91.40;;;;;;4948713;28;20471;-67
2021/09/07 06:52:47;;;;;;;13.38;8.13;;;11.50;91.60;;;;;;4958734;28;20393;-67
2021/09/07 06:55:12;;;;;;;11.50;6.60;;;11.50;91.50;;;;;;4948247;28;20035;-67
2021/09/07 06:57:38;;;;;;;14.02;8.40;;;11.60;91.10;;;;;;4942660;28;20392;-67
2021/09/07 07:00:05;;;;;;;14.95;7.95;;;11.60;90.90;;;;;;4945831;28;20035;-67
2021/09/07 07:02:31;;;;;;;12.57;7.38;;;11.70;90.80;;;;;;4942615;28;20106;-67
2021/09/07 07:04:59;;;;;;;13.70;7.65;;;11.70;91.20;;;;;;4964260;28;20036;-67
2021/09/07 07:07:24;;;;;;;11.38;6.97;;;11.80;91.80;;;;;;4945328;28;20109;-67
2021/09/07 07:09:51;;;;;;;11.93;6.85;;;11.80;91.80;;;;;;4947940;28;20166;-67
2021/09/07 07:12:17;;;;;;;12.43;7.32;;;11.90;91.20;;;;;;4945115;28;20122;-67
2021/09/07 07:14:42;;;;;;;11.75;7.57;;;11.90;91.60;;;;;;4946220;28;20173;-67
2021/09/07 07:17:08;;;;;;;11.80;7.00;;;11.90;91.00;;;;;;4946531;28;20035;-67
2021/09/07 07:19:33;;;;;;;10.38;6.60;;;12.00;91.00;;;;;;4946788;28;20055;-67
2021/09/07 07:21:59;;;;;;;12.52;7.45;;;12.00;91.10;;;;;;4946632;28;20039;-67
2021/09/07 07:24:24;;;;;;;10.90;6.72;;;12.10;90.70;;;;;;4943867;28;20050;-67
2021/09/07 07:26:50;;;;;;;14.30;7.50;;;12.20;91.10;;;;;;4950193;28;20046;-67
2021/09/07 07:29:16;;;;;;;13.15;8.20;;;12.30;91.40;;;;;;4946989;28;20504;-68
2021/09/07 07:31:42;;;;;;;11.63;7.70;;;12.40;91.90;;;;;;4946860;28;20090;-67
2021/09/07 07:34:09;;;;;;;11.98;7.35;;;12.50;91.40;;;;;;4945732;28;20023;-67
2021/09/07 07:36:34;;;;;;;11.50;7.25;;;12.60;91.50;;;;;;4950741;28;20070;-67
2021/09/07 07:39:01;;;;;;;16.63;7.55;;;12.70;91.30;;;;;;4949168;28;20062;-69
2021/09/07 07:41:27;;;;;;;17.27;8.20;;;12.80;91.10;;;;;;4950591;28;20034;-66
2021/09/07 07:43:52;;;;;;;14.65;7.95;;;12.90;91.60;;;;;;4963271;28;20376;-67
2021/09/07 07:46:18;;;;;;;15.00;8.43;;;13.10;91.80;;;;;;4951698;28;20037;-67
2021/09/07 07:48:44;;;;;;;16.38;8.95;;;13.20;91.40;;;;;;4968971;28;20028;-67
2021/09/07 07:51:11;;;;;;;14.45;8.25;;;13.40;91.90;;;;;;4951977;28;20031;-68
2021/09/07 07:53:37;;;;;;;15.35;7.97;;;13.50;91.70;;;;;;4952667;28;20085;-67
2021/09/07 07:56:03;;;;;;;17.50;9.05;;;13.70;91.30;;;;;;4953694;28;20436;-67
2021/09/07 07:58:29;;;;;;;14.77;8.27;;;13.90;92.00;;;;;;4957159;28;20139;-67
2021/09/07 08:00:56;;;;;;;12.88;8.65;;;14.00;91.90;;;;;;4950575;28;20515;-67
2021/09/07 08:03:21;;;;;;;17.88;10.25;;;14.20;91.40;;;;;;4955300;28;20027;-67
2021/09/07 08:05:47;;;;;;;14.70;9.18;;;14.30;90.80;;;;;;4964415;28;20019;-67
2021/09/07 08:08:13;;;;;;;17.13;9.05;;;14.50;90.80;;;;;;4949072;28;20031;-67
2021/09/07 08:10:39;;;;;;;17.38;9.77;;;14.60;90.70;;;;;;4970156;28;20082;-67
2021/09/07 08:13:06;;;;;;;17.98;9.88;;;14.70;90.60;;;;;;4951726;28;20030;-68
2021/09/07 08:15:32;;;;;;;16.90;9.65;;;14.90;90.90;;;;;;4951030;28;20110;-67
2021/09/07 08:17:58;;;;;;;18.80;10.75;;;15.10;90.30;;;;;;4948280;28;20138;-67
2021/09/07 08:20:23;;;;;;;16.50;9.48;;;15.20;90.00;;;;;;4950198;28;20038;-68
2021/09/07 08:22:49;;;;;;;20.17;10.73;;;15.40;90.30;;;;;;4954659;28;20046;-67
2021/09/07 08:25:15;;;;;;;19.23;10.93;;;15.60;90.20;;;;;;4952744;28;20039;-67
2021/09/07 08:27:41;;;;;;;18.08;11.38;;;15.80;90.40;;;;;;4950804;29;20027;-67
2021/09/07 08:30:07;;;;;;;18.38;10.55;;;15.90;90.00;;;;;;4953220;28;20031;-67
2021/09/07 08:32:33;;;;;;;19.58;11.32;;;16.10;89.80;;;;;;4951008;28;20070;-67
2021/09/07 08:34:58;;;;;;;16.13;10.82;;;16.20;90.60;;;;;;4952238;28;20027;-67
2021/09/07 08:37:24;;;;;;;26.27;15.50;;;16.40;90.40;;;;;;4951570;28;20107;-67
2021/09/07 08:39:50;;;;;;;19.23;11.68;;;16.60;91.00;;;;;;4953597;28;20142;-67
2021/09/07 08:42:16;;;;;;;17.40;11.18;;;16.90;90.00;;;;;;4953007;28;20496;-67
2021/09/07 08:44:45;;;;;;;18.15;11.25;;;17.10;90.50;;;;;;4953193;28;20032;-67
2021/09/07 08:47:19;;;;;;;18.52;10.48;;;17.20;89.70;;;;;;4947401;28;20442;-67
2021/09/07 08:49:48;;;;;;;18.10;10.63;;;17.40;87.90;;;;;;4945285;28;20400;-67
2021/09/07 08:52:14;;;;;;;21.13;11.65;;;17.60;87.10;;;;;;4953199;28;20448;-67
2021/09/07 08:54:43;;;;;;;19.90;11.40;;;17.70;86.50;;;;;;4951061;28;20031;-67
2021/09/07 08:57:09;;;;;;;18.75;12.35;;;17.80;85.20;;;;;;4952762;28;20366;-67
2021/09/07 08:59:35;;;;;;;19.52;11.02;;;18.00;85.00;;;;;;4950557;28;20098;-67
2021/09/07 09:02:14;;;;;;;18.35;10.90;;;17.90;81.50;;;;;;4965428;28;20043;-66
2021/09/07 09:04:44;;;;;;;17.23;10.43;;;17.90;84.80;;;;;;4949962;28;20027;-67
2021/09/07 09:07:22;;;;;;;17.98;11.35;;;18.00;85.90;;;;;;4949112;28;20050;-67
2021/09/07 09:09:50;;;;;;;15.00;9.80;;;18.10;82.60;;;;;;4950285;28;20062;-67
2021/09/07 09:12:16;;;;;;;17.60;10.63;;;18.20;83.20;;;;;;4952842;28;20099;-67
2021/09/07 09:14:45;;;;;;;17.05;9.98;;;18.20;81.70;;;;;;4950098;28;20038;-66
2021/09/07 09:17:16;;;;;;;15.57;9.77;;;18.30;81.90;;;;;;4953272;28;20050;-67
2021/09/07 09:19:52;;;;;;;20.05;10.63;;;18.40;79.30;;;;;;4953080;28;20039;-67
2021/09/07 09:22:19;;;;;;;18.95;9.52;;;18.50;78.60;;;;;;4965777;28;20573;-67
2021/09/07 09:24:45;;;;;;;17.08;10.02;;;18.50;80.60;;;;;;4951684;28;20058;-67
2021/09/07 09:27:11;;;;;;;16.77;10.13;;;18.60;78.70;;;;;;4949532;28;20078;-67
2021/09/07 09:29:40;;;;;;;15.07;9.15;;;18.60;77.80;;;;;;4953148;28;20027;-67
2021/09/07 09:32:09;;;;;;;13.07;8.73;;;18.80;78.00;;;;;;4948347;28;20039;-67
2021/09/07 09:34:36;;;;;;;15.60;8.38;;;18.90;77.80;;;;;;4951606;29;20535;-67
2021/09/07 09:37:08;;;;;;;16.92;8.43;;;19.00;73.70;;;;;;4951256;28;20032;-67
2021/09/07 09:39:43;;;;;;;13.95;8.27;;;18.90;74.10;;;;;;4951436;28;20459;-67
2021/09/07 09:42:15;;;;;;;11.02;7.20;;;19.10;74.50;;;;;;4951330;28;20058;-67
2021/09/07 09:44:41;;;;;;;13.98;8.90;;;19.30;74.40;;;;;;4952679;28;20824;-68
2021/09/07 09:47:07;;;;;;;17.00;10.13;;;19.50;75.40;;;;;;4947215;28;20852;-67
2021/09/07 09:49:33;;;;;;;12.48;7.53;;;19.60;75.90;;;;;;4949901;28;20027;-67
2021/09/07 09:52:08;;;;;;;12.63;8.05;;;19.60;70.50;;;;;;4951219;28;20082;-67
2021/09/07 09:54:36;;;;;;;11.77;7.68;;;19.60;70.60;;;;;;4951348;28;20043;-67
2021/09/07 09:57:03;;;;;;;;;;;19.60;69.30;;;;;;4951953;28;20082;-68
2021/09/07 09:59:29;;;;;;;14.65;6.25;;;19.80;69.30;;;;;;4951133;28;19911;-67
2021/09/07 10:01:56;;;;;;;14.07;6.63;;;20.00;69.40;;;;;;4945628;28;20539;-67
2021/09/07 10:04:23;;;;;;;9.27;6.10;;;20.20;65.00;;;;;;4948929;28;20489;-66
2021/09/07 10:06:51;;;;;;;13.25;6.65;;;20.20;67.60;;;;;;4947737;28;20074;-67
2021/09/07 10:09:22;;;;;;;10.10;6.65;;;20.20;64.50;;;;;;4950599;28;20019;-67
2021/09/07 10:11:59;;;;;;;8.73;6.07;;;20.30;67.60;;;;;;4946460;28;20046;-67
2021/09/07 10:14:30;;;;;;;8.07;6.10;;;20.40;62.00;;;;;;4950616;28;20481;-67
2021/09/07 10:17:23;;;;;;;10.23;6.60;;;20.30;63.30;;;;;;4949317;28;20102;-67
2021/09/07 10:19:58;;;;;;;11.15;6.43;;;20.40;63.00;;;;;;4952156;28;20063;-67
2021/09/07 10:25:49;;;;;;;8.18;5.88;;;20.60;64.90;;;;;;4943249;28;20054;-67
2021/09/07 10:28:37;;;;;;;7.80;5.13;;;20.70;63.50;;;;;;4951773;28;20019;-67
2021/09/07 10:31:12;;;;;;;9.65;6.00;;;20.70;62.80;;;;;;4968932;28;20487;-67
2021/09/07 10:33:45;;;;;;;11.10;6.75;;;20.80;61.60;;;;;;4951831;28;20031;-67
2021/09/07 10:36:21;;;;;;;10.23;6.68;;;20.80;65.30;;;;;;4946253;28;20050;-67
2021/09/07 10:38:52;;;;;;;12.00;6.40;;;20.90;62.80;;;;;;4951318;28;20023;-67
2021/09/07 10:41:33;;;;;;;9.13;6.28;;;20.90;63.20;;;;;;4946875;28;20070;-67
2021/09/07 10:44:23;;;;;;;9.93;6.32;;;21.00;63.20;;;;;;4962545;28;20162;-67
2021/09/07 10:47:04;;;;;;;10.45;6.97;;;21.00;62.10;;;;;;4947184;28;20059;-67
2021/09/07 10:49:33;;;;;;;9.95;6.90;;;21.10;63.50;;;;;;4947779;28;20596;-67
2021/09/07 10:52:12;;;;;;;14.55;7.53;;;21.30;63.30;;;;;;4948462;28;20549;-67
2021/09/07 10:54:52;;;;;;;12.07;6.95;;;21.30;61.20;;;;;;4959910;28;20480;-67
2021/09/07 10:57:52;;;;;;;10.52;6.35;;;21.20;62.10;;;;;;4950479;28;20031;-67
2021/09/07 11:00:23;;;;;;;12.38;6.28;;;21.20;61.50;;;;;;4949975;28;20023;-67
2021/09/07 11:02:54;;;;;;;7.85;5.65;;;21.20;59.00;;;;;;4949965;28;20023;-68
2021/09/07 11:05:26;;;;;;;10.32;6.57;;;21.20;59.30;;;;;;4952276;28;20020;-68
2021/09/07 11:08:16;;;;;;;7.97;5.75;;;21.10;60.80;;;;;;4943630;28;20391;-68
2021/09/07 11:10:49;;;;;;;10.63;6.05;;;21.20;58.10;;;;;;4949079;28;20034;-68
2021/09/07 11:13:22;;;;;;;9.93;6.00;;;21.30;60.80;;;;;;4946209;29;20026;-68
2021/09/07 11:15:48;;;;;;;9.90;6.00;;;21.30;60.30;;;;;;4944992;28;20542;-68
2021/09/07 11:18:22;;;;;;;10.23;6.60;;;21.40;60.20;;;;;;4947827;28;20020;-68
2021/09/07 11:20:49;;;;;;;9.95;6.82;;;21.40;60.00;;;;;;4949049;28;20020;-68
2021/09/07 11:23:16;;;;;;;7.80;5.63;;;21.60;60.00;;;;;;4951290;28;20042;-68
2021/09/07 11:25:44;;;;;;;8.77;5.97;;;21.70;59.80;;;;;;4946481;28;20047;-68
2021/09/07 11:28:12;;;;;;;;;;;21.90;60.20;;;;;;4947680;28;20381;-68
2021/09/07 11:30:45;;;;;;;8.88;6.55;;;22.00;58.40;;;;;;4950760;28;19910;-68
2021/09/07 11:33:19;;;;;;;8.25;5.57;;;22.10;61.20;;;;;;4950438;28;20032;-68
2021/09/07 11:35:46;;;;;;;9.18;5.78;;;22.00;60.20;;;;;;4947419;28;20036;-68
2021/09/07 11:38:15;;;;;;;8.80;6.17;;;21.80;56.10;;;;;;4954345;28;20023;-68
2021/09/07 11:40:49;;;;;;;8.38;5.95;;;21.80;55.60;;;;;;4948831;28;20030;-68
2021/09/07 11:43:27;;;;;;;7.75;5.80;;;21.80;54.90;;;;;;4946264;28;20112;-68
2021/09/07 11:46:40;;;;;;;8.63;5.65;;;21.80;56.60;;;;;;4952380;28;20036;-68
2021/09/07 11:49:08;;;;;;;8.82;6.15;;;21.80;57.60;;;;;;4946442;28;20373;-68
2021/09/07 11:51:37;;;;;;;11.02;6.53;;;21.80;58.50;;;;;;4941230;28;20038;-68
2021/09/07 11:54:05;;;;;;;10.05;6.60;;;21.70;58.70;;;;;;4951117;28;20369;-68
2021/09/07 11:56:36;;;;;;;16.90;6.75;;;21.70;56.90;;;;;;4946581;28;20109;-68
2021/09/07 11:59:15;;;;;;;9.50;5.95;;;21.70;59.30;;;;;;4947885;28;20039;-68
2021/09/07 12:01:41;;;;;;;9.43;6.25;;;21.80;58.10;;;;;;4963883;28;20057;-68
2021/09/07 12:04:07;;;;;;;8.60;5.20;;;22.00;60.20;;;;;;4945423;28;20476;-68
2021/09/07 12:06:38;;;;;;;7.72;5.65;;;22.20;55.80;;;;;;4950201;28;20035;-68
2021/09/07 12:09:12;;;;;;;7.95;5.45;;;22.10;55.00;;;;;;4948126;28;20174;-68
2021/09/07 12:11:39;;;;;;;8.23;5.78;;;22.10;54.00;;;;;;4952617;28;20049;-68
2021/09/07 12:14:09;;;;;;;8.48;5.78;;;22.10;53.70;;;;;;4950162;28;22391;-68
2021/09/07 12:16:38;;;;;;;8.10;5.93;;;22.10;57.30;;;;;;4946814;28;20067;-68
2021/09/07 12:19:32;;;;;;;9.20;6.07;;;22.30;57.20;;;;;;4946385;28;20046;-68
2021/09/07 12:22:17;;;;;;;9.98;5.90;;;22.30;58.60;;;;;;4963028;28;20452;-68
2021/09/07 12:25:00;;;;;;;10.98;5.80;;;22.20;54.90;;;;;;4948511;28;20560;-68
2021/09/07 12:27:28;;;;;;;8.50;5.97;;;22.20;54.60;;;;;;4946759;28;20444;-68
2021/09/07 12:30:04;;;;;;;8.65;5.95;;;22.20;57.90;;;;;;4946861;28;20043;-68
2021/09/07 12:32:30;;;;;;;8.93;5.25;;;22.10;53.30;;;;;;4950074;28;20099;-68
2021/09/07 12:34:55;;;;;;;10.13;5.85;;;22.10;53.10;;;;;;4951036;28;20066;-68
2021/09/07 12:37:21;;;;;;;11.25;6.00;;;22.10;55.00;;;;;;4949641;28;20122;-68
2021/09/07 12:39:47;;;;;;;7.85;5.90;;;22.10;53.30;;;;;;4947126;29;20567;-68
2021/09/07 12:42:12;;;;;;;7.18;5.35;;;22.10;55.70;;;;;;4945490;28;20035;-68
2021/09/07 12:44:38;;;;;;;6.85;5.18;;;22.10;52.50;;;;;;4947397;28;20027;-68
2021/09/07 12:47:04;;;;;;;8.70;4.93;;;22.10;53.10;;;;;;4942887;28;20036;-66
2021/09/07 12:49:29;;;;;;;7.60;5.40;;;22.20;52.80;;;;;;4944943;28;20020;-67